Saint Petersburg, Florida
Current Conditions -  °F | °C
As of 1:53 PM on Friday 24 Oct 2014 (Local Time) from KSPG Reporting Station
Clear Clear  
Wind Chill: 26°   Ceiling: Unl
Heat Index: 26°   Visibility: 10mi
Dew Point: 13°   Wind: 6mph
Humidity: 46%   Direction: 30°NNE
Pressure: 29.94"   Gusts: NA
Location:  27.77°N, 82.63°W
Report Text: KSPG 241753Z 03005KT 10SM CLR 26/13 A2994 RMK AO2 SLP138 T02560133 10256 20200 58016
Loading
Personal Weather Stations






























Interactive Weather Map
Tropical Storm Tracking
New forecast layout! Learn more

10-Day Weather Forecast

Advertisements
Track Severe Weather on mobile